sensor_id;sensor_type;location;lat;lon;timestamp;temperature;humidity
34766;DHT22;20984;43.508;1.504;2023-06-26T00:00:41;21.40;99.90
34766;DHT22;20984;43.508;1.504;2023-06-26T00:03:07;21.40;99.90
34766;DHT22;20984;43.508;1.504;2023-06-26T00:05:33;21.40;99.90
34766;DHT22;20984;43.508;1.504;2023-06-26T00:08:00;21.40;99.90
34766;DHT22;20984;43.508;1.504;2023-06-26T00:10:26;21.40;99.90
34766;DHT22;20984;43.508;1.504;2023-06-26T00:12:53;21.40;99.90
34766;DHT22;20984;43.508;1.504;2023-06-26T00:15:19;21.30;99.90
34766;DHT22;20984;43.508;1.504;2023-06-26T00:17:45;21.30;99.90
34766;DHT22;20984;43.508;1.504;2023-06-26T00:20:11;21.30;99.90
34766;DHT22;20984;43.508;1.504;2023-06-26T00:22:36;21.30;99.90
34766;DHT22;20984;43.508;1.504;2023-06-26T00:25:06;21.30;99.90
34766;DHT22;20984;43.508;1.504;2023-06-26T00:27:32;21.30;99.90
34766;DHT22;20984;43.508;1.504;2023-06-26T00:29:57;21.30;99.90
34766;DHT22;20984;43.508;1.504;2023-06-26T00:32:23;21.30;99.90
34766;DHT22;20984;43.508;1.504;2023-06-26T00:34:49;21.30;99.90
34766;DHT22;20984;43.508;1.504;2023-06-26T00:37:14;21.30;99.90
34766;DHT22;20984;43.508;1.504;2023-06-26T00:39:40;21.20;99.90
34766;DHT22;20984;43.508;1.504;2023-06-26T00:42:06;21.20;99.90
34766;DHT22;20984;43.508;1.504;2023-06-26T00:44:32;21.20;99.90
34766;DHT22;20984;43.508;1.504;2023-06-26T00:46:57;21.20;99.90
34766;DHT22;20984;43.508;1.504;2023-06-26T00:49:23;21.20;99.90
34766;DHT22;20984;43.508;1.504;2023-06-26T00:51:49;21.20;99.90
34766;DHT22;20984;43.508;1.504;2023-06-26T00:54:15;21.20;99.90
34766;DHT22;20984;43.508;1.504;2023-06-26T00:56:46;21.20;99.90
34766;DHT22;20984;43.508;1.504;2023-06-26T00:59:12;21.20;99.90
34766;DHT22;20984;43.508;1.504;2023-06-26T01:01:38;21.20;99.90
34766;DHT22;20984;43.508;1.504;2023-06-26T01:04:03;21.20;99.90
34766;DHT22;20984;43.508;1.504;2023-06-26T01:06:32;21.10;99.90
34766;DHT22;20984;43.508;1.504;2023-06-26T01:09:02;21.10;99.90
34766;DHT22;20984;43.508;1.504;2023-06-26T01:11:27;21.10;99.90
34766;DHT22;20984;43.508;1.504;2023-06-26T01:13:53;21.10;99.90
34766;DHT22;20984;43.508;1.504;2023-06-26T01:16:21;21.10;99.90
34766;DHT22;20984;43.508;1.504;2023-06-26T01:18:48;21.10;99.90
34766;DHT22;20984;43.508;1.504;2023-06-26T01:21:15;21.10;99.90
34766;DHT22;20984;43.508;1.504;2023-06-26T01:24:16;21.10;99.90
34766;DHT22;20984;43.508;1.504;2023-06-26T01:26:53;21.10;99.90
34766;DHT22;20984;43.508;1.504;2023-06-26T01:29:19;21.10;99.90
34766;DHT22;20984;43.508;1.504;2023-06-26T01:31:46;21.10;99.90
34766;DHT22;20984;43.508;1.504;2023-06-26T01:34:16;21.00;99.90
34766;DHT22;20984;43.508;1.504;2023-06-26T01:36:43;21.00;99.90
34766;DHT22;20984;43.508;1.504;2023-06-26T01:39:09;21.00;99.90
34766;DHT22;20984;43.508;1.504;2023-06-26T01:41:35;21.00;99.90
34766;DHT22;20984;43.508;1.504;2023-06-26T01:55:26;20.90;99.90
34766;DHT22;20984;43.508;1.504;2023-06-26T01:57:54;20.90;99.90
34766;DHT22;20984;43.508;1.504;2023-06-26T02:00:21;20.90;99.90
34766;DHT22;20984;43.508;1.504;2023-06-26T02:02:48;20.90;99.90
34766;DHT22;20984;43.508;1.504;2023-06-26T02:05:14;20.90;99.90
34766;DHT22;20984;43.508;1.504;2023-06-26T02:07:40;20.80;99.90
34766;DHT22;20984;43.508;1.504;2023-06-26T02:10:06;20.80;99.90
34766;DHT22;20984;43.508;1.504;2023-06-26T02:12:34;20.80;99.90
34766;DHT22;20984;43.508;1.504;2023-06-26T02:15:00;20.70;99.90
34766;DHT22;20984;43.508;1.504;2023-06-26T02:17:26;20.70;99.90
34766;DHT22;20984;43.508;1.504;2023-06-26T02:19:51;20.70;99.90
34766;DHT22;20984;43.508;1.504;2023-06-26T02:22:17;20.70;99.90
34766;DHT22;20984;43.508;1.504;2023-06-26T02:24:43;20.70;99.90
34766;DHT22;20984;43.508;1.504;2023-06-26T02:27:09;20.70;99.90
34766;DHT22;20984;43.508;1.504;2023-06-26T02:29:35;20.70;99.90
34766;DHT22;20984;43.508;1.504;2023-06-26T02:32:01;20.70;99.90
34766;DHT22;20984;43.508;1.504;2023-06-26T02:34:27;20.70;99.90
34766;DHT22;20984;43.508;1.504;2023-06-26T02:36:53;20.70;99.90
34766;DHT22;20984;43.508;1.504;2023-06-26T02:39:22;20.60;99.90
34766;DHT22;20984;43.508;1.504;2023-06-26T02:41:48;20.60;99.90
34766;DHT22;20984;43.508;1.504;2023-06-26T02:44:13;20.60;99.90
34766;DHT22;20984;43.508;1.504;2023-06-26T02:46:40;20.60;99.90
34766;DHT22;20984;43.508;1.504;2023-06-26T02:49:06;20.60;99.90
34766;DHT22;20984;43.508;1.504;2023-06-26T02:51:33;20.50;99.90
34766;DHT22;20984;43.508;1.504;2023-06-26T02:53:58;20.60;99.90
34766;DHT22;20984;43.508;1.504;2023-06-26T02:56:24;20.60;99.90
34766;DHT22;20984;43.508;1.504;2023-06-26T02:58:54;20.60;99.90
34766;DHT22;20984;43.508;1.504;2023-06-26T03:01:20;20.60;99.90
34766;DHT22;20984;43.508;1.504;2023-06-26T03:03:46;20.50;99.90
34766;DHT22;20984;43.508;1.504;2023-06-26T03:06:12;20.50;99.90
34766;DHT22;20984;43.508;1.504;2023-06-26T03:08:38;20.50;99.90
34766;DHT22;20984;43.508;1.504;2023-06-26T03:11:09;20.50;99.90
34766;DHT22;20984;43.508;1.504;2023-06-26T03:13:36;20.50;99.90
34766;DHT22;20984;43.508;1.504;2023-06-26T03:16:03;20.50;99.90
34766;DHT22;20984;43.508;1.504;2023-06-26T03:18:29;20.60;99.90
34766;DHT22;20984;43.508;1.504;2023-06-26T03:20:56;20.50;99.90
34766;DHT22;20984;43.508;1.504;2023-06-26T03:23:23;20.50;99.90
34766;DHT22;20984;43.508;1.504;2023-06-26T03:25:49;20.50;99.90
34766;DHT22;20984;43.508;1.504;2023-06-26T03:28:15;20.50;99.90
34766;DHT22;20984;43.508;1.504;2023-06-26T03:30:41;20.50;99.90
34766;DHT22;20984;43.508;1.504;2023-06-26T03:33:06;20.50;99.90
34766;DHT22;20984;43.508;1.504;2023-06-26T03:35:32;20.50;99.90
34766;DHT22;20984;43.508;1.504;2023-06-26T03:37:58;20.50;99.90
34766;DHT22;20984;43.508;1.504;2023-06-26T03:40:24;20.50;99.90
34766;DHT22;20984;43.508;1.504;2023-06-26T03:42:50;20.50;99.90
34766;DHT22;20984;43.508;1.504;2023-06-26T03:45:15;20.50;99.90
34766;DHT22;20984;43.508;1.504;2023-06-26T03:47:41;20.50;99.90
34766;DHT22;20984;43.508;1.504;2023-06-26T03:50:07;20.50;99.90
34766;DHT22;20984;43.508;1.504;2023-06-26T03:52:33;20.50;99.90
34766;DHT22;20984;43.508;1.504;2023-06-26T03:54:59;20.50;99.90
34766;DHT22;20984;43.508;1.504;2023-06-26T03:57:25;20.50;99.90
34766;DHT22;20984;43.508;1.504;2023-06-26T03:59:52;20.50;99.90
34766;DHT22;20984;43.508;1.504;2023-06-26T04:02:18;20.50;99.90
34766;DHT22;20984;43.508;1.504;2023-06-26T04:04:44;20.50;99.90
34766;DHT22;20984;43.508;1.504;2023-06-26T04:07:10;20.50;99.90
34766;DHT22;20984;43.508;1.504;2023-06-26T04:09:35;20.50;99.90
34766;DHT22;20984;43.508;1.504;2023-06-26T04:12:01;20.50;99.90
34766;DHT22;20984;43.508;1.504;2023-06-26T04:14:27;20.50;99.90
34766;DHT22;20984;43.508;1.504;2023-06-26T04:16:53;20.40;99.90
34766;DHT22;20984;43.508;1.504;2023-06-26T04:19:18;20.40;99.90
34766;DHT22;20984;43.508;1.504;2023-06-26T04:21:44;20.40;99.90
34766;DHT22;20984;43.508;1.504;2023-06-26T04:24:10;20.40;99.90
34766;DHT22;20984;43.508;1.504;2023-06-26T04:26:36;20.40;99.90
34766;DHT22;20984;43.508;1.504;2023-06-26T04:29:02;20.40;99.90
34766;DHT22;20984;43.508;1.504;2023-06-26T04:31:28;20.40;99.90
34766;DHT22;20984;43.508;1.504;2023-06-26T04:33:54;20.40;99.90
34766;DHT22;20984;43.508;1.504;2023-06-26T04:36:20;20.40;99.90
34766;DHT22;20984;43.508;1.504;2023-06-26T04:38:46;20.40;99.90
34766;DHT22;20984;43.508;1.504;2023-06-26T04:41:13;20.50;99.90
34766;DHT22;20984;43.508;1.504;2023-06-26T04:43:39;20.50;99.90
34766;DHT22;20984;43.508;1.504;2023-06-26T04:46:06;20.50;99.90
34766;DHT22;20984;43.508;1.504;2023-06-26T04:48:32;20.50;99.90
34766;DHT22;20984;43.508;1.504;2023-06-26T04:50:58;20.50;99.90
34766;DHT22;20984;43.508;1.504;2023-06-26T04:53:24;20.50;99.90
34766;DHT22;20984;43.508;1.504;2023-06-26T04:55:50;20.50;99.90
34766;DHT22;20984;43.508;1.504;2023-06-26T04:58:16;20.50;99.90
34766;DHT22;20984;43.508;1.504;2023-06-26T05:00:42;20.50;99.90
34766;DHT22;20984;43.508;1.504;2023-06-26T05:03:12;20.50;99.90
34766;DHT22;20984;43.508;1.504;2023-06-26T05:05:38;20.50;99.90
34766;DHT22;20984;43.508;1.504;2023-06-26T05:08:33;20.60;99.90
34766;DHT22;20984;43.508;1.504;2023-06-26T05:10:59;20.60;99.90
34766;DHT22;20984;43.508;1.504;2023-06-26T05:13:25;20.60;99.90
34766;DHT22;20984;43.508;1.504;2023-06-26T05:15:52;20.60;99.90
34766;DHT22;20984;43.508;1.504;2023-06-26T05:18:18;20.60;99.90
34766;DHT22;20984;43.508;1.504;2023-06-26T05:20:44;20.70;99.90
34766;DHT22;20984;43.508;1.504;2023-06-26T05:23:13;20.70;99.90
34766;DHT22;20984;43.508;1.504;2023-06-26T05:25:40;20.70;99.90
34766;DHT22;20984;43.508;1.504;2023-06-26T05:28:06;20.70;99.90
34766;DHT22;20984;43.508;1.504;2023-06-26T05:30:34;20.70;99.90
34766;DHT22;20984;43.508;1.504;2023-06-26T05:33:03;20.70;99.90
34766;DHT22;20984;43.508;1.504;2023-06-26T05:35:29;20.80;99.90
34766;DHT22;20984;43.508;1.504;2023-06-26T05:37:56;20.80;99.90
34766;DHT22;20984;43.508;1.504;2023-06-26T05:40:23;20.70;99.90
34766;DHT22;20984;43.508;1.504;2023-06-26T05:42:49;20.70;99.90
34766;DHT22;20984;43.508;1.504;2023-06-26T05:45:15;20.70;99.90
34766;DHT22;20984;43.508;1.504;2023-06-26T05:47:41;20.70;99.90
34766;DHT22;20984;43.508;1.504;2023-06-26T05:50:08;20.70;99.90
34766;DHT22;20984;43.508;1.504;2023-06-26T05:52:35;20.70;99.90
34766;DHT22;20984;43.508;1.504;2023-06-26T05:55:01;20.80;99.90
34766;DHT22;20984;43.508;1.504;2023-06-26T05:57:28;20.80;99.90
34766;DHT22;20984;43.508;1.504;2023-06-26T05:59:55;20.70;99.90
34766;DHT22;20984;43.508;1.504;2023-06-26T06:02:21;20.70;99.90
34766;DHT22;20984;43.508;1.504;2023-06-26T06:04:46;20.80;99.90
34766;DHT22;20984;43.508;1.504;2023-06-26T06:07:12;20.70;99.90
34766;DHT22;20984;43.508;1.504;2023-06-26T06:09:38;20.70;99.90
34766;DHT22;20984;43.508;1.504;2023-06-26T06:12:05;20.70;99.90
34766;DHT22;20984;43.508;1.504;2023-06-26T06:14:32;20.70;99.90
34766;DHT22;20984;43.508;1.504;2023-06-26T06:16:57;20.80;99.90
34766;DHT22;20984;43.508;1.504;2023-06-26T06:19:23;20.80;99.90
34766;DHT22;20984;43.508;1.504;2023-06-26T06:21:49;20.90;99.90
34766;DHT22;20984;43.508;1.504;2023-06-26T06:24:14;21.00;99.90
34766;DHT22;20984;43.508;1.504;2023-06-26T06:26:40;21.00;99.90
34766;DHT22;20984;43.508;1.504;2023-06-26T06:29:05;21.10;99.90
34766;DHT22;20984;43.508;1.504;2023-06-26T06:31:31;21.10;99.90
34766;DHT22;20984;43.508;1.504;2023-06-26T06:33:57;21.10;99.90
34766;DHT22;20984;43.508;1.504;2023-06-26T06:36:23;21.10;99.90
34766;DHT22;20984;43.508;1.504;2023-06-26T06:38:48;21.10;99.90
34766;DHT22;20984;43.508;1.504;2023-06-26T06:41:14;21.10;99.90
34766;DHT22;20984;43.508;1.504;2023-06-26T06:43:40;21.10;99.90
34766;DHT22;20984;43.508;1.504;2023-06-26T06:46:06;21.10;99.90
34766;DHT22;20984;43.508;1.504;2023-06-26T06:48:32;21.20;99.90
34766;DHT22;20984;43.508;1.504;2023-06-26T06:50:58;21.10;99.90
34766;DHT22;20984;43.508;1.504;2023-06-26T06:53:23;21.20;99.90
34766;DHT22;20984;43.508;1.504;2023-06-26T06:55:49;21.20;99.90
34766;DHT22;20984;43.508;1.504;2023-06-26T06:58:15;21.40;99.90
34766;DHT22;20984;43.508;1.504;2023-06-26T07:00:48;21.50;99.90
34766;DHT22;20984;43.508;1.504;2023-06-26T07:03:14;21.50;99.90
34766;DHT22;20984;43.508;1.504;2023-06-26T07:05:41;21.50;99.90
34766;DHT22;20984;43.508;1.504;2023-06-26T07:08:07;21.50;99.90
34766;DHT22;20984;43.508;1.504;2023-06-26T07:10:33;21.50;99.90
34766;DHT22;20984;43.508;1.504;2023-06-26T07:12:59;21.60;99.90
34766;DHT22;20984;43.508;1.504;2023-06-26T07:15:25;21.60;99.90
34766;DHT22;20984;43.508;1.504;2023-06-26T07:17:51;21.60;99.90
34766;DHT22;20984;43.508;1.504;2023-06-26T07:20:16;21.70;99.90
34766;DHT22;20984;43.508;1.504;2023-06-26T07:22:42;21.70;99.90
34766;DHT22;20984;43.508;1.504;2023-06-26T07:25:10;21.80;99.90
34766;DHT22;20984;43.508;1.504;2023-06-26T07:27:39;21.70;99.90
34766;DHT22;20984;43.508;1.504;2023-06-26T07:30:06;21.80;99.90
34766;DHT22;20984;43.508;1.504;2023-06-26T07:32:34;21.70;99.90
34766;DHT22;20984;43.508;1.504;2023-06-26T07:35:00;21.70;99.90
34766;DHT22;20984;43.508;1.504;2023-06-26T07:37:25;21.80;99.90
34766;DHT22;20984;43.508;1.504;2023-06-26T07:39:51;22.00;99.90
34766;DHT22;20984;43.508;1.504;2023-06-26T07:42:17;22.10;99.90
34766;DHT22;20984;43.508;1.504;2023-06-26T07:44:42;22.10;99.90
34766;DHT22;20984;43.508;1.504;2023-06-26T07:47:09;22.20;99.90
34766;DHT22;20984;43.508;1.504;2023-06-26T07:49:35;22.20;99.90
34766;DHT22;20984;43.508;1.504;2023-06-26T07:52:01;22.30;99.90
34766;DHT22;20984;43.508;1.504;2023-06-26T07:54:26;22.30;99.90
34766;DHT22;20984;43.508;1.504;2023-06-26T07:59:19;22.40;99.90
34766;DHT22;20984;43.508;1.504;2023-06-26T08:01:44;22.50;99.90
34766;DHT22;20984;43.508;1.504;2023-06-26T08:04:10;22.50;99.90
34766;DHT22;20984;43.508;1.504;2023-06-26T08:06:36;22.60;99.90
34766;DHT22;20984;43.508;1.504;2023-06-26T08:09:06;22.60;99.90
34766;DHT22;20984;43.508;1.504;2023-06-26T08:11:33;22.80;99.90
34766;DHT22;20984;43.508;1.504;2023-06-26T08:13:59;22.80;99.90
34766;DHT22;20984;43.508;1.504;2023-06-26T08:16:24;22.90;99.90
34766;DHT22;20984;43.508;1.504;2023-06-26T08:18:50;22.90;99.90
34766;DHT22;20984;43.508;1.504;2023-06-26T08:21:16;22.80;99.90
34766;DHT22;20984;43.508;1.504;2023-06-26T08:23:41;22.90;99.90
34766;DHT22;20984;43.508;1.504;2023-06-26T08:26:07;23.00;99.90
34766;DHT22;20984;43.508;1.504;2023-06-26T08:28:33;23.10;99.90
34766;DHT22;20984;43.508;1.504;2023-06-26T08:30:59;23.10;99.90
34766;DHT22;20984;43.508;1.504;2023-06-26T08:33:25;23.20;99.90
34766;DHT22;20984;43.508;1.504;2023-06-26T08:35:51;23.20;99.90
34766;DHT22;20984;43.508;1.504;2023-06-26T08:38:16;23.10;99.90
34766;DHT22;20984;43.508;1.504;2023-06-26T08:40:42;23.20;99.90
34766;DHT22;20984;43.508;1.504;2023-06-26T08:43:08;23.10;99.90
34766;DHT22;20984;43.508;1.504;2023-06-26T08:45:34;23.30;99.90
34766;DHT22;20984;43.508;1.504;2023-06-26T08:48:01;23.40;99.90
34766;DHT22;20984;43.508;1.504;2023-06-26T08:50:30;23.40;99.90
34766;DHT22;20984;43.508;1.504;2023-06-26T08:53:14;23.40;99.90
34766;DHT22;20984;43.508;1.504;2023-06-26T08:55:45;23.40;99.90
34766;DHT22;20984;43.508;1.504;2023-06-26T08:58:11;23.40;99.90
34766;DHT22;20984;43.508;1.504;2023-06-26T09:00:38;23.50;99.90
34766;DHT22;20984;43.508;1.504;2023-06-26T09:03:04;23.50;99.90
34766;DHT22;20984;43.508;1.504;2023-06-26T09:05:30;23.40;99.90
34766;DHT22;20984;43.508;1.504;2023-06-26T09:07:57;23.50;99.90
34766;DHT22;20984;43.508;1.504;2023-06-26T09:10:24;23.50;99.90
34766;DHT22;20984;43.508;1.504;2023-06-26T09:12:50;23.50;99.90
34766;DHT22;20984;43.508;1.504;2023-06-26T09:15:19;23.60;99.90
34766;DHT22;20984;43.508;1.504;2023-06-26T09:17:45;23.50;99.90
34766;DHT22;20984;43.508;1.504;2023-06-26T09:20:11;23.40;99.90
34766;DHT22;20984;43.508;1.504;2023-06-26T09:22:41;23.40;99.90
34766;DHT22;20984;43.508;1.504;2023-06-26T09:25:07;23.50;99.90
34766;DHT22;20984;43.508;1.504;2023-06-26T09:27:35;23.70;99.90
34766;DHT22;20984;43.508;1.504;2023-06-26T09:30:02;24.00;99.90
34766;DHT22;20984;43.508;1.504;2023-06-26T09:32:29;24.20;99.90
34766;DHT22;20984;43.508;1.504;2023-06-26T09:34:54;24.20;99.90
34766;DHT22;20984;43.508;1.504;2023-06-26T09:37:26;24.00;99.90
34766;DHT22;20984;43.508;1.504;2023-06-26T09:39:52;23.80;99.90
34766;DHT22;20984;43.508;1.504;2023-06-26T09:42:19;23.50;99.90
34766;DHT22;20984;43.508;1.504;2023-06-26T09:44:46;23.30;99.90
34766;DHT22;20984;43.508;1.504;2023-06-26T09:47:12;23.10;99.90
34766;DHT22;20984;43.508;1.504;2023-06-26T09:49:41;23.10;99.90
34766;DHT22;20984;43.508;1.504;2023-06-26T09:52:14;23.10;99.90
34766;DHT22;20984;43.508;1.504;2023-06-26T09:54:40;23.10;99.90
34766;DHT22;20984;43.508;1.504;2023-06-26T09:57:14;23.30;99.90
34766;DHT22;20984;43.508;1.504;2023-06-26T09:59:41;23.40;99.90
34766;DHT22;20984;43.508;1.504;2023-06-26T10:02:07;23.60;99.90
34766;DHT22;20984;43.508;1.504;2023-06-26T10:04:35;23.60;99.90
34766;DHT22;20984;43.508;1.504;2023-06-26T10:07:04;23.80;99.90
34766;DHT22;20984;43.508;1.504;2023-06-26T10:09:31;24.00;99.90
34766;DHT22;20984;43.508;1.504;2023-06-26T10:12:14;24.20;99.90
34766;DHT22;20984;43.508;1.504;2023-06-26T10:14:42;24.30;99.90
34766;DHT22;20984;43.508;1.504;2023-06-26T10:17:10;24.60;99.90
34766;DHT22;20984;43.508;1.504;2023-06-26T10:19:38;24.80;99.90
34766;DHT22;20984;43.508;1.504;2023-06-26T10:22:05;24.70;99.90
34766;DHT22;20984;43.508;1.504;2023-06-26T10:24:35;24.30;99.90
34766;DHT22;20984;43.508;1.504;2023-06-26T10:27:15;23.80;99.90
34766;DHT22;20984;43.508;1.504;2023-06-26T10:29:44;23.70;99.90
34766;DHT22;20984;43.508;1.504;2023-06-26T10:32:12;23.60;99.90
34766;DHT22;20984;43.508;1.504;2023-06-26T10:34:38;23.60;99.90
34766;DHT22;20984;43.508;1.504;2023-06-26T10:37:04;23.80;99.90
34766;DHT22;20984;43.508;1.504;2023-06-26T10:39:49;23.90;99.90
34766;DHT22;20984;43.508;1.504;2023-06-26T10:42:16;24.20;99.90
34766;DHT22;20984;43.508;1.504;2023-06-26T10:44:44;24.70;99.90
34766;DHT22;20984;43.508;1.504;2023-06-26T10:47:10;25.20;99.90
34766;DHT22;20984;43.508;1.504;2023-06-26T10:49:37;25.30;99.90
34766;DHT22;20984;43.508;1.504;2023-06-26T10:52:05;25.10;99.90
34766;DHT22;20984;43.508;1.504;2023-06-26T10:54:34;25.00;99.90
34766;DHT22;20984;43.508;1.504;2023-06-26T10:57:01;24.90;99.90
34766;DHT22;20984;43.508;1.504;2023-06-26T10:59:29;24.90;99.90
34766;DHT22;20984;43.508;1.504;2023-06-26T11:02:05;25.10;99.90
34766;DHT22;20984;43.508;1.504;2023-06-26T11:04:50;25.60;99.90
34766;DHT22;20984;43.508;1.504;2023-06-26T11:07:20;25.60;99.90
34766;DHT22;20984;43.508;1.504;2023-06-26T11:09:58;25.40;99.90
34766;DHT22;20984;43.508;1.504;2023-06-26T11:12:41;25.10;99.90
34766;DHT22;20984;43.508;1.504;2023-06-26T11:15:15;25.20;99.90
34766;DHT22;20984;43.508;1.504;2023-06-26T11:17:42;24.90;99.90
34766;DHT22;20984;43.508;1.504;2023-06-26T11:20:12;24.80;99.90
34766;DHT22;20984;43.508;1.504;2023-06-26T11:22:42;24.60;99.90
34766;DHT22;20984;43.508;1.504;2023-06-26T11:25:09;24.60;99.90
34766;DHT22;20984;43.508;1.504;2023-06-26T11:30:05;24.40;99.90
34766;DHT22;20984;43.508;1.504;2023-06-26T11:32:31;24.50;99.90
34766;DHT22;20984;43.508;1.504;2023-06-26T11:34:58;24.60;99.90
34766;DHT22;20984;43.508;1.504;2023-06-26T11:37:24;24.40;99.90
34766;DHT22;20984;43.508;1.504;2023-06-26T11:39:51;24.00;99.90
34766;DHT22;20984;43.508;1.504;2023-06-26T11:42:18;23.80;99.90
34766;DHT22;20984;43.508;1.504;2023-06-26T11:44:44;23.60;99.90
34766;DHT22;20984;43.508;1.504;2023-06-26T11:47:20;23.40;99.90
34766;DHT22;20984;43.508;1.504;2023-06-26T11:49:48;23.20;99.90
34766;DHT22;20984;43.508;1.504;2023-06-26T11:52:15;23.30;99.90
34766;DHT22;20984;43.508;1.504;2023-06-26T11:54:42;23.40;99.90
34766;DHT22;20984;43.508;1.504;2023-06-26T11:57:08;23.60;99.90
34766;DHT22;20984;43.508;1.504;2023-06-26T11:59:40;23.80;99.90
34766;DHT22;20984;43.508;1.504;2023-06-26T12:02:13;24.00;99.90
34766;DHT22;20984;43.508;1.504;2023-06-26T12:04:43;24.20;99.90
34766;DHT22;20984;43.508;1.504;2023-06-26T12:07:10;24.20;99.90
34766;DHT22;20984;43.508;1.504;2023-06-26T12:09:44;24.60;99.90
34766;DHT22;20984;43.508;1.504;2023-06-26T12:12:12;24.90;99.90
34766;DHT22;20984;43.508;1.504;2023-06-26T12:14:39;25.00;99.90
34766;DHT22;20984;43.508;1.504;2023-06-26T12:17:10;25.20;99.90
34766;DHT22;20984;43.508;1.504;2023-06-26T12:19:36;25.30;99.90
34766;DHT22;20984;43.508;1.504;2023-06-26T12:22:06;25.10;99.90
34766;DHT22;20984;43.508;1.504;2023-06-26T12:24:32;25.20;99.90
34766;DHT22;20984;43.508;1.504;2023-06-26T12:26:58;25.40;99.90
34766;DHT22;20984;43.508;1.504;2023-06-26T12:29:32;25.50;99.90
34766;DHT22;20984;43.508;1.504;2023-06-26T12:31:59;25.50;99.90
34766;DHT22;20984;43.508;1.504;2023-06-26T12:34:33;25.50;99.90
34766;DHT22;20984;43.508;1.504;2023-06-26T12:37:07;25.30;99.90
34766;DHT22;20984;43.508;1.504;2023-06-26T12:42:27;25.20;99.90
34766;DHT22;20984;43.508;1.504;2023-06-26T12:44:54;25.30;99.90
34766;DHT22;20984;43.508;1.504;2023-06-26T12:47:28;25.40;99.90
34766;DHT22;20984;43.508;1.504;2023-06-26T12:49:54;25.50;99.90
34766;DHT22;20984;43.508;1.504;2023-06-26T12:52:21;25.60;99.90
34766;DHT22;20984;43.508;1.504;2023-06-26T12:54:51;25.90;99.90
34766;DHT22;20984;43.508;1.504;2023-06-26T12:57:17;26.20;99.90
34766;DHT22;20984;43.508;1.504;2023-06-26T12:59:43;26.10;99.90
34766;DHT22;20984;43.508;1.504;2023-06-26T13:02:09;26.20;99.90
34766;DHT22;20984;43.508;1.504;2023-06-26T13:04:36;26.30;99.90
34766;DHT22;20984;43.508;1.504;2023-06-26T13:07:05;26.00;99.90
34766;DHT22;20984;43.508;1.504;2023-06-26T13:09:33;25.80;99.90
34766;DHT22;20984;43.508;1.504;2023-06-26T13:11:59;25.80;99.90
34766;DHT22;20984;43.508;1.504;2023-06-26T13:14:24;25.70;99.90
34766;DHT22;20984;43.508;1.504;2023-06-26T13:16:50;25.50;99.90
34766;DHT22;20984;43.508;1.504;2023-06-26T13:19:16;25.50;99.90
34766;DHT22;20984;43.508;1.504;2023-06-26T13:21:41;25.50;99.90
34766;DHT22;20984;43.508;1.504;2023-06-26T13:24:08;25.60;99.90
34766;DHT22;20984;43.508;1.504;2023-06-26T13:26:35;25.50;99.90
34766;DHT22;20984;43.508;1.504;2023-06-26T13:29:01;25.60;99.90
34766;DHT22;20984;43.508;1.504;2023-06-26T13:31:27;25.60;99.90
34766;DHT22;20984;43.508;1.504;2023-06-26T13:33:52;25.60;99.90
34766;DHT22;20984;43.508;1.504;2023-06-26T13:36:19;25.60;99.90
34766;DHT22;20984;43.508;1.504;2023-06-26T13:38:45;25.60;99.90
34766;DHT22;20984;43.508;1.504;2023-06-26T13:41:10;25.60;99.90
34766;DHT22;20984;43.508;1.504;2023-06-26T13:43:37;25.60;99.90
34766;DHT22;20984;43.508;1.504;2023-06-26T13:46:03;25.60;99.90
34766;DHT22;20984;43.508;1.504;2023-06-26T13:48:28;25.70;99.90
34766;DHT22;20984;43.508;1.504;2023-06-26T13:50:54;25.70;99.90
34766;DHT22;20984;43.508;1.504;2023-06-26T13:53:21;25.60;99.90
34766;DHT22;20984;43.508;1.504;2023-06-26T13:55:47;25.70;99.90
34766;DHT22;20984;43.508;1.504;2023-06-26T13:58:13;26.00;99.90
34766;DHT22;20984;43.508;1.504;2023-06-26T14:00:39;26.40;99.90
34766;DHT22;20984;43.508;1.504;2023-06-26T14:03:06;26.60;99.90
34766;DHT22;20984;43.508;1.504;2023-06-26T14:05:33;26.80;99.90
34766;DHT22;20984;43.508;1.504;2023-06-26T14:07:59;27.00;99.90
34766;DHT22;20984;43.508;1.504;2023-06-26T14:10:25;27.20;99.90
34766;DHT22;20984;43.508;1.504;2023-06-26T14:12:51;27.20;99.90
34766;DHT22;20984;43.508;1.504;2023-06-26T14:15:16;27.00;99.90
34766;DHT22;20984;43.508;1.504;2023-06-26T14:17:42;26.80;99.90
34766;DHT22;20984;43.508;1.504;2023-06-26T14:20:09;26.90;99.90
34766;DHT22;20984;43.508;1.504;2023-06-26T14:22:41;27.00;99.90
34766;DHT22;20984;43.508;1.504;2023-06-26T14:25:07;27.10;99.90
34766;DHT22;20984;43.508;1.504;2023-06-26T14:27:33;27.10;99.90
34766;DHT22;20984;43.508;1.504;2023-06-26T14:29:59;26.90;99.90
34766;DHT22;20984;43.508;1.504;2023-06-26T14:32:25;26.60;99.90
34766;DHT22;20984;43.508;1.504;2023-06-26T14:34:51;26.50;99.90
34766;DHT22;20984;43.508;1.504;2023-06-26T14:37:16;26.60;99.90
34766;DHT22;20984;43.508;1.504;2023-06-26T14:39:44;26.70;99.90
34766;DHT22;20984;43.508;1.504;2023-06-26T14:42:10;26.70;99.90
34766;DHT22;20984;43.508;1.504;2023-06-26T14:44:36;26.80;99.90
34766;DHT22;20984;43.508;1.504;2023-06-26T14:47:01;26.90;99.90
34766;DHT22;20984;43.508;1.504;2023-06-26T14:49:27;26.80;99.90
34766;DHT22;20984;43.508;1.504;2023-06-26T14:51:53;26.80;99.90
34766;DHT22;20984;43.508;1.504;2023-06-26T14:54:19;26.40;99.90
34766;DHT22;20984;43.508;1.504;2023-06-26T14:56:44;26.20;99.90
34766;DHT22;20984;43.508;1.504;2023-06-26T14:59:11;26.00;99.90
34766;DHT22;20984;43.508;1.504;2023-06-26T15:01:38;25.80;99.90
34766;DHT22;20984;43.508;1.504;2023-06-26T15:04:05;25.60;99.90
34766;DHT22;20984;43.508;1.504;2023-06-26T15:06:31;25.60;99.90
34766;DHT22;20984;43.508;1.504;2023-06-26T15:08:57;25.70;99.90
34766;DHT22;20984;43.508;1.504;2023-06-26T15:11:23;25.80;99.90
34766;DHT22;20984;43.508;1.504;2023-06-26T15:13:49;26.00;99.90
34766;DHT22;20984;43.508;1.504;2023-06-26T15:16:14;25.90;99.90
34766;DHT22;20984;43.508;1.504;2023-06-26T15:18:41;25.90;99.90
34766;DHT22;20984;43.508;1.504;2023-06-26T15:21:07;25.90;99.90
34766;DHT22;20984;43.508;1.504;2023-06-26T15:23:33;25.80;99.90
34766;DHT22;20984;43.508;1.504;2023-06-26T15:25:59;25.70;99.90
34766;DHT22;20984;43.508;1.504;2023-06-26T15:28:25;25.60;99.90
34766;DHT22;20984;43.508;1.504;2023-06-26T15:30:51;25.80;99.90
34766;DHT22;20984;43.508;1.504;2023-06-26T15:33:16;25.80;99.90
34766;DHT22;20984;43.508;1.504;2023-06-26T15:35:42;25.90;99.90
34766;DHT22;20984;43.508;1.504;2023-06-26T15:38:08;25.90;99.90
34766;DHT22;20984;43.508;1.504;2023-06-26T15:40:33;26.10;99.90
34766;DHT22;20984;43.508;1.504;2023-06-26T15:42:59;26.00;99.90
34766;DHT22;20984;43.508;1.504;2023-06-26T15:45:25;26.00;99.90
34766;DHT22;20984;43.508;1.504;2023-06-26T15:47:51;26.10;99.90